Time;durP1;ratioP1;P1;durP2;ratioP2;P2;SDS_P1;SDS_P2;PMS_P1;PMS_P2;Temp;Humidity;BMP_temperature;BMP_pressure;BME280_temperature;BME280_humidity;BME280_pressure;Samples;Min_cycle;Max_cycle;Signal;HPM_P1;HPM_P2
2022/10/24 04:01:40;;;;;;;2.83;1.80;;;;;;;;;;5441745;23;20491;-79
2022/10/24 04:04:06;;;;;;;7.70;2.43;;;;;;;;;;5014565;28;20915;-79
2022/10/24 04:06:32;;;;;;;6.30;2.60;;;;;;;;;;4998931;28;20422;-80
2022/10/24 04:08:58;;;;;;;6.33;1.40;;;;;;;;;;5015283;28;20177;-79
2022/10/24 04:11:24;;;;;;;6.43;2.40;;;14.50;96.30;;;;;;5026385;28;20477;-79
2022/10/24 04:13:51;;;;;;;7.97;2.50;;;14.50;96.30;;;;;;5035482;28;20411;-79
2022/10/24 04:16:17;;;;;;;4.63;2.20;;;14.40;96.30;;;;;;5040267;28;20172;-80
2022/10/24 04:18:43;;;;;;;11.90;2.83;;;14.30;96.30;;;;;;5029943;28;20419;-79
2022/10/24 04:28:55;;;;;;;8.93;2.63;;;;;;;;;;5174027;23;20540;-79
2022/10/24 04:31:21;;;;;;;8.23;3.20;;;14.20;96.30;;;;;;5032515;28;20431;-80
2022/10/24 04:33:46;;;;;;;18.73;9.60;;;14.20;96.30;;;;;;5015068;28;20422;-81
2022/10/24 04:36:12;;;;;;;9.27;2.90;;;14.10;96.30;;;;;;5032739;28;20184;-79
2022/10/24 04:38:37;;;;;;;5.93;2.30;;;14.00;96.30;;;;;;5032607;28;20697;-79
2022/10/24 04:41:03;;;;;;;16.03;7.67;;;14.10;96.30;;;;;;5014802;28;20778;-79
2022/10/24 04:43:29;;;;;;;24.80;8.03;;;14.20;96.30;;;;;;5015692;28;20222;-82
2022/10/24 04:45:54;;;;;;;11.17;3.60;;;14.20;96.30;;;;;;5033379;28;20164;-79
2022/10/24 04:48:20;;;;;;;6.10;2.23;;;14.30;96.30;;;;;;5015412;28;20666;-80
2022/10/24 04:50:47;;;;;;;5.87;2.73;;;14.30;96.30;;;;;;5015071;28;20671;-80
2022/10/24 04:53:13;;;;;;;12.13;4.90;;;14.30;96.30;;;;;;5015513;28;20180;-79
2022/10/24 04:55:38;;;;;;;5.73;3.60;;;14.30;96.30;;;;;;5032982;28;20410;-80
2022/10/24 04:58:04;;;;;;;8.27;3.60;;;14.30;96.30;;;;;;5015279;28;20203;-80
2022/10/24 05:00:30;;;;;;;15.33;2.30;;;;;;;;;;5032500;28;20214;-81
2022/10/24 05:02:56;;;;;;;5.30;2.87;;;14.40;96.30;;;;;;5013594;28;20841;-80
2022/10/24 05:05:21;;;;;;;9.53;2.80;;;14.40;96.30;;;;;;5032622;28;20419;-80
2022/10/24 05:07:47;;;;;;;11.90;4.40;;;14.40;96.30;;;;;;5016408;28;20172;-80
2022/10/24 05:10:14;;;;;;;8.70;3.23;;;14.40;96.30;;;;;;5035298;28;20176;-80
2022/10/24 05:12:40;;;;;;;10.10;4.60;;;14.40;96.30;;;;;;5018837;28;20179;-79
2022/10/24 05:15:07;;;;;;;8.83;4.53;;;14.30;96.30;;;;;;5036143;28;20779;-80
2022/10/24 05:17:33;;;;;;;9.73;2.80;;;14.30;96.30;;;;;;5034767;28;20430;-80
2022/10/24 05:19:59;;;;;;;4.27;2.43;;;14.40;96.30;;;;;;5016703;28;20459;-80
2022/10/24 05:22:24;;;;;;;10.70;3.20;;;14.30;96.30;;;;;;5033835;28;20192;-79
2022/10/24 05:24:50;;;;;;;11.23;2.60;;;14.30;96.30;;;;;;5036699;28;20164;-79
2022/10/24 05:27:23;;;;;;;7.17;2.80;;;;;;;;;;5036860;28;20183;-80
2022/10/24 05:29:54;;;;;;;12.40;3.83;;;14.30;96.30;;;;;;5037037;28;20168;-79
2022/10/24 05:32:21;;;;;;;10.00;3.00;;;14.20;96.30;;;;;;5050845;28;20430;-79
2022/10/24 05:34:47;;;;;;;5.87;2.33;;;14.30;96.30;;;;;;5039456;28;20422;-78
2022/10/24 05:37:12;;;;;;;5.00;1.50;;;14.30;96.30;;;;;;5037448;28;20482;-77
2022/10/24 05:39:38;;;;;;;4.00;2.17;;;14.30;96.30;;;;;;5055281;28;20600;-77
2022/10/24 05:42:04;;;;;;;5.60;2.00;;;14.30;96.30;;;;;;5025183;28;20680;-77
2022/10/24 05:44:29;;;;;;;4.27;1.50;;;14.30;96.30;;;;;;5006028;28;20714;-78
2022/10/24 05:46:55;;;;;;;8.90;1.87;;;14.40;96.30;;;;;;5011590;28;20176;-77
2022/10/24 05:49:21;;;;;;;5.90;1.90;;;14.30;96.30;;;;;;5035278;28;20169;-77
2022/10/24 05:51:46;;;;;;;4.33;2.17;;;14.30;96.30;;;;;;5011887;28;20196;-77
2022/10/24 05:54:12;;;;;;;5.87;1.57;;;14.20;96.30;;;;;;5035139;28;20168;-77
2022/10/24 05:56:38;;;;;;;8.80;1.57;;;;;;;;;;5035021;28;20226;-77
2022/10/24 05:59:04;;;;;;;7.80;2.00;;;14.30;96.30;;;;;;5029503;28;20659;-77
2022/10/24 06:01:30;;;;;;;5.70;1.80;;;14.30;96.30;;;;;;5016965;28;20458;-78
2022/10/24 06:03:56;;;;;;;4.33;1.47;;;;;;;;;;5024968;28;20546;-77
2022/10/24 06:06:23;;;;;;;9.63;1.83;;;14.30;96.30;;;;;;5015414;28;20407;-77
2022/10/24 06:08:50;;;;;;;10.00;1.87;;;14.30;96.30;;;;;;5016230;28;20407;-77
2022/10/24 06:11:15;;;;;;;4.50;1.90;;;14.30;96.30;;;;;;5000267;28;21090;-77
2022/10/24 06:13:41;;;;;;;16.53;2.27;;;14.30;96.30;;;;;;4997157;28;20427;-77
2022/10/24 06:16:08;;;;;;;3.30;1.30;;;14.30;96.30;;;;;;4997189;28;20228;-77
2022/10/24 06:18:34;;;;;;;9.53;1.70;;;14.40;96.30;;;;;;4997227;28;20529;-77
2022/10/24 06:21:01;;;;;;;7.17;2.10;;;14.30;96.30;;;;;;4997184;28;20471;-77
2022/10/24 06:23:27;;;;;;;7.37;1.40;;;;;;;;;;5014867;28;20411;-77
2022/10/24 06:25:53;;;;;;;7.00;1.97;;;;;;;;;;5003542;28;20446;-77
2022/10/24 06:28:18;;;;;;;8.83;2.03;;;;;;;;;;5013083;28;20469;-77
2022/10/24 06:30:47;;;;;;;5.20;1.73;;;14.30;96.30;;;;;;5008363;28;20474;-77
2022/10/24 06:33:12;;;;;;;7.27;2.23;;;14.30;96.30;;;;;;5007504;28;20436;-77
2022/10/24 06:35:38;;;;;;;4.97;1.57;;;14.40;96.30;;;;;;5023516;28;20419;-77
2022/10/24 06:38:04;;;;;;;6.60;1.53;;;14.50;96.30;;;;;;5030963;28;20183;-77
2022/10/24 06:40:29;;;;;;;2.30;1.37;;;14.60;96.30;;;;;;5030985;28;20654;-77
2022/10/24 06:42:55;;;;;;;7.17;2.37;;;14.60;96.30;;;;;;5024510;28;20648;-77
2022/10/24 06:45:22;;;;;;;7.97;2.30;;;14.70;96.30;;;;;;5002525;28;20632;-77
2022/10/24 06:47:48;;;;;;;5.80;1.50;;;14.70;96.30;;;;;;5016865;28;20902;-77
2022/10/24 06:50:16;;;;;;;11.60;1.83;;;14.80;96.30;;;;;;5019815;28;20457;-76
2022/10/24 06:52:42;;;;;;;6.13;1.90;;;14.80;96.30;;;;;;5033489;28;20415;-77
2022/10/24 06:55:08;;;;;;;6.50;1.70;;;14.80;96.30;;;;;;5015503;28;20415;-76
2022/10/24 06:57:34;;;;;;;8.30;2.10;;;;;;;;;;5032812;28;20181;-77
2022/10/24 07:00:00;;;;;;;5.57;2.23;;;;;;;;;;5015516;28;20536;-77
2022/10/24 07:02:26;;;;;;;5.60;1.83;;;15.10;96.30;;;;;;5030234;28;20451;-77
2022/10/24 07:04:51;;;;;;;6.47;2.00;;;15.20;96.30;;;;;;5012025;28;20633;-77
2022/10/24 07:07:20;;;;;;;6.10;1.73;;;15.30;96.30;;;;;;4979640;28;20319;-76
2022/10/24 07:09:55;;;;;;;3.20;1.87;;;15.30;96.30;;;;;;4993577;28;20267;-77
2022/10/24 07:12:22;;;;;;;5.47;2.10;;;15.30;96.30;;;;;;5012947;28;20794;-78
2022/10/24 07:14:47;;;;;;;7.53;2.33;;;15.30;96.30;;;;;;4995741;28;20427;-77
2022/10/24 07:17:14;;;;;;;7.53;1.93;;;15.20;96.30;;;;;;5013537;28;20499;-75
2022/10/24 07:19:39;;;;;;;7.33;2.30;;;15.20;96.30;;;;;;4993976;28;20204;-75
2022/10/24 07:22:06;;;;;;;9.83;2.37;;;15.30;96.30;;;;;;5011353;28;20435;-75
2022/10/24 07:24:32;;;;;;;6.37;2.47;;;15.40;96.30;;;;;;4994069;28;20527;-75
2022/10/24 07:26:57;;;;;;;9.33;2.10;;;15.40;96.30;;;;;;5010796;28;20416;-75
2022/10/24 07:29:23;;;;;;;8.20;2.20;;;15.50;96.30;;;;;;5009601;28;20939;-75
2022/10/24 07:31:49;;;;;;;7.53;2.20;;;15.50;96.30;;;;;;5011306;28;20276;-74
2022/10/24 07:34:15;;;;;;;6.73;2.20;;;15.70;96.30;;;;;;5011116;28;20185;-74
2022/10/24 07:36:40;;;;;;;13.13;1.93;;;15.80;96.30;;;;;;5010907;28;20242;-74
2022/10/24 07:39:06;;;;;;;10.33;2.20;;;16.00;96.30;;;;;;4993754;28;20188;-75
2022/10/24 07:41:32;;;;;;;5.10;1.97;;;16.10;96.30;;;;;;5011164;28;20227;-75
2022/10/24 07:43:59;;;;;;;7.23;2.93;;;16.20;96.30;;;;;;5011321;28;20177;-75
2022/10/24 07:46:24;;;;;;;11.30;2.50;;;16.20;96.30;;;;;;5010701;28;20412;-75
2022/10/24 07:48:51;;;;;;;8.50;2.60;;;16.30;96.30;;;;;;5010634;28;20465;-75
2022/10/24 07:51:17;;;;;;;7.40;2.20;;;16.30;96.30;;;;;;5011118;28;20201;-75
2022/10/24 07:53:42;;;;;;;4.63;2.40;;;16.30;96.30;;;;;;5011102;28;20462;-75
2022/10/24 07:56:13;;;;;;;10.50;2.23;;;16.20;96.30;;;;;;5011139;28;20463;-75
2022/10/24 07:58:39;;;;;;;9.60;2.27;;;;;;;;;;5010700;28;20192;-75
2022/10/24 08:01:06;;;;;;;5.63;2.10;;;16.10;96.30;;;;;;5010885;28;20471;-75
2022/10/24 08:03:32;;;;;;;3.37;1.90;;;;;;;;;;5011344;28;20423;-76
2022/10/24 08:05:58;;;;;;;12.57;2.73;;;;;;;;;;5012464;28;20419;-78
2022/10/24 08:08:24;;;;;;;6.10;2.40;;;16.00;96.30;;;;;;5011948;28;20439;-78
2022/10/24 08:10:50;;;;;;;5.90;2.37;;;16.00;96.30;;;;;;5011332;28;20246;-78
2022/10/24 08:13:16;;;;;;;8.60;2.40;;;16.00;96.30;;;;;;5012267;28;20184;-77
2022/10/24 08:15:42;;;;;;;5.90;2.00;;;;;;;;;;5012095;28;20191;-77
2022/10/24 08:18:08;;;;;;;7.27;2.77;;;16.10;96.30;;;;;;5010650;28;20882;-77
2022/10/24 08:20:33;;;;;;;8.83;2.13;;;16.10;96.30;;;;;;4993518;28;20510;-77
2022/10/24 08:22:59;;;;;;;6.73;1.97;;;16.20;96.30;;;;;;5010542;28;20184;-76
2022/10/24 08:25:24;;;;;;;6.10;2.77;;;16.20;96.30;;;;;;5010658;28;20629;-77
2022/10/24 08:27:50;;;;;;;4.87;2.40;;;16.30;96.30;;;;;;5010430;28;20197;-77
2022/10/24 08:30:16;;;;;;;5.63;2.00;;;16.30;96.30;;;;;;5008734;28;20180;-77
2022/10/24 08:32:42;;;;;;;10.90;2.30;;;16.40;96.30;;;;;;4993219;28;20189;-77
2022/10/24 08:35:08;;;;;;;3.27;1.80;;;16.50;96.30;;;;;;5024542;28;20437;-77
2022/10/24 08:37:36;;;;;;;8.90;2.43;;;16.60;96.30;;;;;;5012189;28;20439;-76
2022/10/24 08:40:08;;;;;;;4.60;2.30;;;16.60;96.30;;;;;;5031275;28;20458;-77
2022/10/24 08:42:34;;;;;;;5.53;2.50;;;16.50;96.30;;;;;;5014394;28;21020;-76
2022/10/24 08:45:00;;;;;;;8.77;1.90;;;16.40;96.30;;;;;;5031643;28;20774;-76
2022/10/24 08:47:36;;;;;;;10.60;2.03;;;16.30;96.30;;;;;;5031495;28;20891;-76
2022/10/24 08:50:10;;;;;;;4.37;2.07;;;;;;;;;;5032122;28;20637;-77
2022/10/24 08:52:41;;;;;;;4.17;1.93;;;16.20;96.30;;;;;;5032039;28;20944;-77
2022/10/24 08:55:20;;;;;;;10.57;3.40;;;16.30;96.30;;;;;;5032109;28;20918;-77
2022/10/24 08:57:53;;;;;;;8.70;2.03;;;16.20;96.30;;;;;;5030534;28;20423;-77
2022/10/24 09:00:28;;;;;;;10.03;2.20;;;16.20;96.30;;;;;;5014180;28;20470;-77
2022/10/24 09:03:03;;;;;;;6.70;2.20;;;16.20;96.30;;;;;;5032247;28;20817;-77
2022/10/24 09:05:38;;;;;;;3.23;2.07;;;16.20;96.30;;;;;;5014249;28;20418;-76
2022/10/24 09:08:24;;;;;;;3.67;1.83;;;16.30;96.30;;;;;;5013831;28;20454;-78
2022/10/24 09:10:58;;;;;;;7.13;2.13;;;16.30;96.30;;;;;;5031925;28;20430;-77
2022/10/24 09:13:26;;;;;;;8.80;2.40;;;16.30;96.30;;;;;;5031497;28;20986;-76
2022/10/24 09:15:51;;;;;;;11.77;2.50;;;16.40;96.30;;;;;;5031435;28;20459;-77
2022/10/24 09:18:25;;;;;;;6.40;2.10;;;16.40;96.30;;;;;;5028883;28;20419;-77
2022/10/24 09:20:51;;;;;;;5.63;1.63;;;16.50;96.30;;;;;;5022353;28;20235;-78
2022/10/24 09:23:19;;;;;;;5.67;2.03;;;16.50;96.30;;;;;;5009433;28;20473;-77
2022/10/24 09:25:49;;;;;;;3.80;2.00;;;16.60;96.30;;;;;;5022023;28;20414;-78
2022/10/24 09:28:15;;;;;;;7.20;2.20;;;16.60;96.30;;;;;;5016738;28;21046;-77
2022/10/24 09:30:41;;;;;;;9.60;2.20;;;16.50;96.30;;;;;;5019519;28;20462;-77
2022/10/24 09:33:24;;;;;;;5.30;1.73;;;16.50;96.30;;;;;;5019638;28;20423;-77
2022/10/24 09:35:52;;;;;;;3.93;1.57;;;16.50;96.30;;;;;;5021836;28;20200;-77
2022/10/24 09:38:32;;;;;;;13.90;2.53;;;16.50;96.30;;;;;;5019541;28;20411;-78
2022/10/24 09:41:01;;;;;;;3.73;1.57;;;16.40;96.30;;;;;;5019859;28;20874;-77
2022/10/24 09:43:38;;;;;;;5.37;2.63;;;16.40;96.30;;;;;;5018760;28;20407;-78
2022/10/24 09:46:27;;;;;;;9.20;1.97;;;16.40;96.30;;;;;;5002500;28;20775;-77
2022/10/24 09:49:00;;;;;;;8.30;2.53;;;16.40;96.30;;;;;;5003717;28;20769;-78
2022/10/24 09:51:32;;;;;;;13.10;2.50;;;16.30;96.30;;;;;;5020135;28;20432;-78
2022/10/24 09:54:17;;;;;;;12.73;4.40;;;16.30;96.30;;;;;;5012515;28;20440;-77
2022/10/24 09:56:45;;;;;;;5.27;1.77;;;16.30;96.30;;;;;;5011896;28;20907;-76
2022/10/24 09:59:47;;;;;;;3.07;1.40;;;16.30;96.30;;;;;;4994248;28;20544;-78
2022/10/24 10:02:13;;;;;;;2.20;1.27;;;;;;;;;;4994174;28;21021;-77
2022/10/24 10:04:41;;;;;;;3.30;1.30;;;16.20;96.30;;;;;;4993915;28;20444;-77
2022/10/24 10:07:16;;;;;;;3.10;1.10;;;16.10;96.30;;;;;;5010974;28;20423;-76
2022/10/24 10:09:53;;;;;;;5.97;1.27;;;16.10;96.30;;;;;;5012765;28;20412;-77
2022/10/24 10:12:35;;;;;;;7.43;1.60;;;16.10;96.30;;;;;;5020601;28;20428;-77
2022/10/24 10:15:16;;;;;;;2.40;0.90;;;16.10;96.30;;;;;;5025386;28;20400;-77
2022/10/24 10:17:51;;;;;;;1.97;0.97;;;16.10;96.30;;;;;;5009123;28;20422;-78
2022/10/24 10:20:37;;;;;;;3.17;0.80;;;;;;;;;;5023647;28;20451;-77
2022/10/24 10:23:15;;;;;;;2.40;0.90;;;;;;;;;;5017099;28;20522;-78
2022/10/24 10:25:41;;;;;;;1.20;0.83;;;;;;;;;;4995104;28;20506;-77
2022/10/24 10:28:19;;;;;;;2.50;0.93;;;16.00;96.30;;;;;;5012113;28;20581;-77
2022/10/24 11:14:17;;;;;;;5.03;0.60;;;;;;;;;;4865915;23;20537;-78
2022/10/24 11:16:43;;;;;;;1.57;0.60;;;16.90;96.30;;;;;;5014722;28;20851;-79
2022/10/24 11:19:11;;;;;;;3.10;0.60;;;;;;;;;;5009961;28;20451;-75
2022/10/24 11:21:40;;;;;;;1.80;0.70;;;16.80;96.30;;;;;;5015478;28;20502;-76
2022/10/24 11:24:17;;;;;;;1.63;0.70;;;16.80;96.30;;;;;;5007283;28;20415;-78
2022/10/24 11:26:53;;;;;;;2.03;0.70;;;16.60;96.30;;;;;;4995657;28;20535;-80
2022/10/24 11:29:53;;;;;;;1.30;0.70;;;16.50;96.30;;;;;;5014780;28;20419;-75
2022/10/24 11:32:43;;;;;;;1.13;0.50;;;16.40;96.30;;;;;;4997496;28;20483;-76
2022/10/24 11:35:21;;;;;;;4.50;0.80;;;16.40;96.30;;;;;;5014568;28;20416;-75
2022/10/24 11:37:51;;;;;;;0.80;0.60;;;16.40;96.30;;;;;;4997179;28;20898;-75
2022/10/24 11:40:20;;;;;;;0.90;0.60;;;16.30;96.30;;;;;;5015354;28;21033;-76
2022/10/24 11:43:04;;;;;;;1.83;0.80;;;16.30;96.30;;;;;;5015192;28;20417;-75
2022/10/24 11:45:45;;;;;;;2.30;0.60;;;16.40;96.30;;;;;;5015243;28;20503;-75
2022/10/24 11:48:21;;;;;;;1.20;0.60;;;16.50;96.30;;;;;;5015170;28;20388;-75
2022/10/24 11:50:54;;;;;;;1.60;1.03;;;16.50;96.30;;;;;;4997560;28;20431;-75
2022/10/24 11:53:27;;;;;;;3.83;1.30;;;16.50;96.30;;;;;;5015291;28;20419;-77
2022/10/24 11:56:07;;;;;;;1.20;0.63;;;16.60;96.30;;;;;;4997673;28;20408;-75
2022/10/24 11:58:37;;;;;;;1.00;0.70;;;16.60;96.30;;;;;;5014675;28;20459;-77
2022/10/24 12:01:02;;;;;;;1.43;0.70;;;;;;;;;;4997970;28;20467;-75
2022/10/24 12:03:50;;;;;;;0.90;0.60;;;16.50;96.30;;;;;;5015505;28;20400;-75
2022/10/24 12:06:34;;;;;;;4.03;0.80;;;16.60;96.30;;;;;;4997686;28;20378;-75
2022/10/24 12:09:32;;;;;;;1.40;0.80;;;16.60;96.30;;;;;;4996664;28;20428;-75
2022/10/24 12:12:25;;;;;;;2.10;0.60;;;16.60;96.30;;;;;;5015263;28;20443;-75
2022/10/24 12:15:27;;;;;;;3.70;1.00;;;16.60;96.30;;;;;;5015519;28;20461;-76
2022/10/24 12:18:03;;;;;;;2.60;0.70;;;16.80;96.30;;;;;;5008232;28;20424;-76
2022/10/24 12:20:30;;;;;;;2.00;0.87;;;16.80;96.30;;;;;;5014896;28;20463;-75
2022/10/24 12:22:56;;;;;;;1.40;0.70;;;16.80;96.30;;;;;;5015402;28;20418;-76
2022/10/24 12:25:29;;;;;;;1.20;0.90;;;16.80;96.30;;;;;;5014945;28;20432;-75
2022/10/24 12:28:02;;;;;;;1.77;0.90;;;16.70;96.30;;;;;;5014069;28;20431;-75
2022/10/24 12:30:31;;;;;;;3.60;0.80;;;16.70;96.30;;;;;;5014059;28;20416;-76
2022/10/24 12:33:32;;;;;;;2.43;1.07;;;16.60;96.30;;;;;;5013669;28;20416;-75
2022/10/24 12:35:58;;;;;;;1.47;0.83;;;16.60;96.30;;;;;;4918098;29;20415;-76
2022/10/24 12:38:26;;;;;;;2.80;0.90;;;16.40;96.30;;;;;;4996908;28;20818;-74
2022/10/24 12:40:54;;;;;;;1.80;0.70;;;;;;;;;;5013788;28;20243;-76
2022/10/24 12:43:29;;;;;;;4.83;1.13;;;16.30;96.30;;;;;;5014024;28;20405;-75
2022/10/24 12:45:59;;;;;;;1.67;1.00;;;16.30;96.30;;;;;;5014137;28;20411;-76
2022/10/24 12:48:34;;;;;;;1.37;1.03;;;16.40;96.30;;;;;;5013681;28;20412;-76
2022/10/24 12:51:02;;;;;;;1.07;0.60;;;16.40;96.30;;;;;;5013037;28;20431;-77
2022/10/24 12:54:01;;;;;;;2.90;0.80;;;16.30;96.30;;;;;;5013143;28;20416;-75
2022/10/24 12:56:28;;;;;;;2.00;0.80;;;16.40;96.30;;;;;;4929523;28;20424;-75
2022/10/24 12:59:52;;;;;;;0.80;0.50;;;16.50;96.30;;;;;;5008604;28;20424;-76
2022/10/24 13:02:41;;;;;;;1.23;0.60;;;16.60;96.30;;;;;;4917408;29;20519;-76
2022/10/24 13:05:10;;;;;;;1.97;0.73;;;;;;;;;;4933513;29;20411;-74
2022/10/24 13:07:50;;;;;;;1.43;0.60;;;;;;;;;;4984929;28;20418;-75
2022/10/24 13:10:52;;;;;;;2.07;1.10;;;16.60;96.30;;;;;;5013957;28;20404;-74
2022/10/24 13:13:33;;;;;;;1.50;0.70;;;16.60;96.30;;;;;;5013982;28;20439;-75
2022/10/24 13:15:59;;;;;;;2.40;0.60;;;;;;;;;;4996420;28;20533;-75
2022/10/24 13:18:45;;;;;;;1.53;0.60;;;16.70;96.30;;;;;;5013672;28;20444;-75
2022/10/24 13:21:42;;;;;;;2.20;0.80;;;16.70;96.30;;;;;;5013236;28;20204;-76
2022/10/24 13:24:18;;;;;;;2.50;0.70;;;16.60;96.30;;;;;;5013958;28;20411;-80
2022/10/24 13:26:47;;;;;;;1.27;0.60;;;16.50;96.30;;;;;;5014609;28;20408;-77
2022/10/24 13:29:24;;;;;;;2.50;0.97;;;16.50;96.30;;;;;;5008446;28;20470;-75
2022/10/24 13:31:53;;;;;;;1.97;0.60;;;16.50;96.30;;;;;;4997048;28;20451;-75
2022/10/24 13:34:47;;;;;;;3.67;0.50;;;16.50;96.30;;;;;;5015739;28;20416;-75
2022/10/24 13:37:40;;;;;;;1.40;0.70;;;16.30;96.30;;;;;;5005059;28;20572;-74
2022/10/24 13:40:15;;;;;;;4.37;0.80;;;16.30;96.30;;;;;;4984419;28;20998;-75
2022/10/24 13:43:03;;;;;;;1.93;0.70;;;16.20;96.30;;;;;;5009367;28;20439;-75
2022/10/24 13:45:45;;;;;;;1.00;0.70;;;16.20;96.30;;;;;;5007922;28;20499;-74
2022/10/24 13:48:19;;;;;;;2.50;0.83;;;16.20;96.30;;;;;;5008959;28;20420;-76
2022/10/24 13:51:04;;;;;;;1.63;0.90;;;16.20;96.30;;;;;;5019055;28;20466;-74
2022/10/24 13:53:42;;;;;;;0.90;0.67;;;16.20;96.30;;;;;;5019435;28;20930;-74
2022/10/24 13:56:10;;;;;;;1.40;0.80;;;16.10;96.30;;;;;;5019862;28;20447;-74
2022/10/24 13:58:41;;;;;;;1.47;0.80;;;16.10;96.30;;;;;;5000283;28;20423;-75
2022/10/24 14:01:20;;;;;;;2.50;0.60;;;16.00;96.30;;;;;;5000014;28;20475;-75
2022/10/24 14:03:48;;;;;;;3.37;0.67;;;16.00;96.30;;;;;;5003097;28;20411;-74
2022/10/24 14:06:14;;;;;;;0.90;0.70;;;16.10;96.30;;;;;;5020104;28;20415;-75
2022/10/24 14:08:44;;;;;;;2.33;1.10;;;16.10;96.30;;;;;;5002168;28;20427;-74
2022/10/24 14:11:22;;;;;;;1.90;0.87;;;16.10;96.30;;;;;;5017563;28;20450;-74
2022/10/24 14:13:52;;;;;;;1.97;0.80;;;16.10;96.30;;;;;;5017890;28;20519;-75
2022/10/24 14:16:44;;;;;;;1.20;0.80;;;16.10;96.30;;;;;;5011969;28;20416;-77
2022/10/24 14:19:24;;;;;;;1.57;0.80;;;16.10;96.30;;;;;;4973921;28;20448;-77
2022/10/24 14:21:49;;;;;;;1.00;0.60;;;16.00;96.30;;;;;;5004153;28;20509;-77
2022/10/24 14:24:21;;;;;;;1.20;0.70;;;16.10;96.30;;;;;;5014648;28;20412;-78
2022/10/24 14:26:50;;;;;;;1.53;0.60;;;;;;;;;;5013642;28;20231;-78
2022/10/24 14:29:31;;;;;;;1.30;0.60;;;16.10;96.30;;;;;;5013080;28;20911;-75
2022/10/24 14:32:12;;;;;;;1.13;0.77;;;16.10;96.30;;;;;;5013908;28;20431;-77
2022/10/24 14:34:38;;;;;;;2.20;0.60;;;;;;;;;;4995098;28;20447;-76
2022/10/24 14:37:18;;;;;;;1.47;0.90;;;16.00;96.30;;;;;;4990228;28;20441;-76
2022/10/24 14:39:44;;;;;;;2.23;0.80;;;15.90;96.30;;;;;;4984826;28;20416;-77
2022/10/24 14:42:17;;;;;;;1.53;1.00;;;15.80;96.30;;;;;;4991664;28;20440;-76
2022/10/24 14:44:45;;;;;;;2.07;0.70;;;15.80;96.30;;;;;;5006846;28;20169;-76
2022/10/24 14:47:27;;;;;;;2.33;0.70;;;15.70;96.30;;;;;;4996131;28;20412;-75
2022/10/24 14:49:53;;;;;;;2.30;0.60;;;15.60;96.30;;;;;;5014376;28;20494;-77
2022/10/24 14:52:31;;;;;;;0.97;0.70;;;15.50;96.30;;;;;;5014156;28;20467;-77
2022/10/24 14:55:00;;;;;;;2.03;0.80;;;;;;;;;;4993958;28;20582;-77
2022/10/24 14:57:27;;;;;;;3.57;1.17;;;15.70;96.30;;;;;;4985915;28;20417;-76
2022/10/24 14:59:54;;;;;;;2.20;1.20;;;15.60;96.30;;;;;;4997280;28;20412;-77
2022/10/24 15:02:28;;;;;;;1.53;0.80;;;;;;;;;;5013350;28;20802;-76
2022/10/24 15:05:14;;;;;;;3.23;1.53;;;15.60;96.30;;;;;;4988860;28;20457;-76
2022/10/24 15:07:40;;;;;;;3.03;1.10;;;;;;;;;;4982949;28;20436;-74
2022/10/24 15:10:09;;;;;;;1.13;0.87;;;;;;;;;;5000133;28;20417;-74
2022/10/24 15:12:50;;;;;;;3.40;1.20;;;15.50;96.30;;;;;;5004834;28;20818;-74
2022/10/24 15:15:45;;;;;;;2.80;1.13;;;15.40;96.30;;;;;;4988890;28;20423;-75
2022/10/24 15:18:29;;;;;;;2.90;1.30;;;15.30;96.30;;;;;;5000724;28;20468;-74
2022/10/24 15:21:13;;;;;;;4.93;1.63;;;15.30;96.30;;;;;;4987897;28;20478;-74
2022/10/24 15:23:50;;;;;;;1.50;0.80;;;;;;;;;;5010448;28;20427;-75
2022/10/24 15:26:39;;;;;;;2.43;1.07;;;15.30;96.30;;;;;;5001114;28;20911;-74
2022/10/24 15:29:19;;;;;;;2.30;1.50;;;15.20;96.30;;;;;;5010200;28;20439;-74
2022/10/24 15:31:46;;;;;;;3.03;1.00;;;15.10;96.30;;;;;;5008523;28;20435;-75
2022/10/24 15:34:17;;;;;;;3.57;1.07;;;15.10;96.30;;;;;;4996755;28;20439;-74
2022/10/24 15:36:44;;;;;;;3.10;1.20;;;;;;;;;;5007901;28;20460;-75
2022/10/24 15:39:11;;;;;;;4.40;1.10;;;;;;;;;;4999083;28;20428;-74
2022/10/24 15:41:37;;;;;;;3.77;1.30;;;15.10;96.30;;;;;;5002569;28;20465;-74
2022/10/24 15:44:12;;;;;;;3.77;1.47;;;15.00;96.30;;;;;;5001765;28;20536;-76
2022/10/24 15:46:38;;;;;;;3.67;1.10;;;;;;;;;;4980157;28;20419;-73
2022/10/24 15:49:03;;;;;;;5.03;1.27;;;15.00;96.30;;;;;;5013064;28;20408;-76
2022/10/24 15:51:29;;;;;;;3.83;1.47;;;;;;;;;;5011928;28;20201;-77
2022/10/24 15:53:55;;;;;;;4.57;1.73;;;14.90;96.30;;;;;;4996057;28;20173;-77
2022/10/24 15:56:23;;;;;;;4.50;1.57;;;;;;;;;;4995767;28;20423;-76
2022/10/24 15:58:49;;;;;;;5.60;1.60;;;14.70;96.30;;;;;;5012601;28;20633;-77
2022/10/24 16:01:40;;;;;;;3.67;1.47;;;14.70;96.30;;;;;;4995727;28;20472;-77
2022/10/24 16:04:09;;;;;;;6.60;3.20;;;14.70;96.30;;;;;;5013353;28;20400;-77
2022/10/24 16:06:35;;;;;;;2.40;1.20;;;;;;;;;;5013551;28;20407;-77
2022/10/24 16:09:00;;;;;;;3.27;1.40;;;14.80;96.30;;;;;;5011206;28;20404;-77
2022/10/24 16:11:26;;;;;;;4.13;1.80;;;14.80;96.30;;;;;;5007101;28;20516;-76
2022/10/24 16:13:51;;;;;;;2.90;1.40;;;14.80;96.30;;;;;;5024647;28;20185;-75
2022/10/24 16:16:17;;;;;;;3.33;1.67;;;;;;;;;;5032647;28;20182;-75
2022/10/24 16:18:43;;;;;;;6.53;1.93;;;;;;;;;;5014499;28;20208;-74
2022/10/24 16:21:17;;;;;;;4.37;1.63;;;;;;;;;;5033034;28;20468;-73
2022/10/24 16:23:43;;;;;;;5.30;1.83;;;;;;;;;;5008129;28;20161;-76
2022/10/24 16:26:09;;;;;;;6.03;2.63;;;14.60;96.30;;;;;;5000799;28;20422;-77
2022/10/24 16:28:34;;;;;;;14.27;8.67;;;14.50;96.30;;;;;;5009862;28;20424;-76
2022/10/24 16:49:10;;;;;;;4.53;2.30;;;;;;;;;;5568843;23;20509;-73
2022/10/24 17:37:28;;;;;;;10.30;5.60;;;13.90;96.30;;;;;;4996799;28;20491;-75
2022/10/24 17:40:00;;;;;;;5.30;3.67;;;13.80;96.30;;;;;;4996968;28;20435;-77
2022/10/24 17:42:26;;;;;;;8.60;3.50;;;13.80;96.30;;;;;;4982702;28;20444;-76
2022/10/24 17:44:51;;;;;;;6.90;3.40;;;13.60;96.30;;;;;;5015452;28;20973;-76
2022/10/24 17:47:17;;;;;;;9.47;3.93;;;13.70;96.30;;;;;;5014456;28;20705;-76
2022/10/24 17:49:43;;;;;;;11.93;4.50;;;13.60;96.30;;;;;;4991312;28;20170;-76
2022/10/24 17:52:20;;;;;;;10.70;6.33;;;13.50;96.30;;;;;;4995592;28;20197;-76
2022/10/24 17:54:45;;;;;;;8.67;6.10;;;13.60;96.30;;;;;;5006513;28;20422;-75
2022/10/24 17:57:11;;;;;;;21.57;8.33;;;;;;;;;;4998284;28;20959;-76
2022/10/24 17:59:37;;;;;;;6.30;4.00;;;;;;;;;;5003698;28;20181;-75
2022/10/24 18:02:02;;;;;;;9.50;5.47;;;13.60;96.30;;;;;;5011009;28;20524;-76
2022/10/24 18:04:28;;;;;;;11.23;5.97;;;13.60;96.30;;;;;;4989605;28;20244;-76
2022/10/24 18:06:54;;;;;;;7.80;2.67;;;13.60;96.30;;;;;;4993015;28;20578;-76
2022/10/24 18:09:19;;;;;;;4.50;3.03;;;13.70;96.30;;;;;;4994069;28;20841;-77
2022/10/24 18:11:45;;;;;;;9.43;5.80;;;13.80;96.30;;;;;;5000466;28;20557;-76
2022/10/24 18:14:10;;;;;;;13.03;7.57;;;13.90;96.30;;;;;;5000457;28;20256;-75
2022/10/24 18:16:37;;;;;;;6.77;2.77;;;13.90;96.30;;;;;;4989590;28;20185;-76
2022/10/24 18:19:03;;;;;;;10.13;3.83;;;13.80;96.30;;;;;;5009331;28;20184;-74
2022/10/24 18:21:29;;;;;;;5.60;3.10;;;;;;;;;;5007811;28;20467;-75
2022/10/24 18:23:55;;;;;;;7.47;3.37;;;13.60;96.30;;;;;;5014504;28;20483;-75
2022/10/24 18:26:23;;;;;;;2.77;1.80;;;13.70;96.30;;;;;;5014397;28;20896;-75
2022/10/24 18:28:51;;;;;;;10.87;2.80;;;13.80;96.30;;;;;;5013700;28;20412;-75
2022/10/24 18:31:20;;;;;;;6.63;2.90;;;13.80;96.30;;;;;;5014164;28;20791;-75
2022/10/24 18:33:45;;;;;;;7.00;2.47;;;13.80;96.30;;;;;;4996643;28;20416;-75
2022/10/24 18:36:20;;;;;;;4.53;2.40;;;13.70;96.30;;;;;;5008477;28;20770;-75
2022/10/24 18:38:46;;;;;;;5.80;2.17;;;13.60;96.30;;;;;;5005056;28;20656;-74
2022/10/24 18:41:29;;;;;;;7.80;2.03;;;13.60;96.30;;;;;;5004549;28;20464;-75
2022/10/24 18:43:57;;;;;;;5.60;2.67;;;13.50;96.30;;;;;;5002461;28;20180;-75
2022/10/24 18:46:23;;;;;;;8.67;2.63;;;13.60;96.30;;;;;;4999366;28;20455;-76
2022/10/24 18:48:49;;;;;;;4.70;2.10;;;13.60;96.30;;;;;;5000095;28;20463;-75
2022/10/24 18:51:20;;;;;;;10.20;2.30;;;13.70;96.30;;;;;;5006961;28;20208;-75
2022/10/24 18:53:46;;;;;;;4.00;1.70;;;13.70;96.30;;;;;;4993347;28;20463;-75
2022/10/24 18:56:12;;;;;;;9.93;5.23;;;13.80;96.30;;;;;;5011173;28;20416;-75
2022/10/24 18:58:39;;;;;;;4.70;2.70;;;13.70;96.30;;;;;;5006606;28;20454;-75
2022/10/24 19:01:05;;;;;;;5.13;1.93;;;;;;;;;;5008482;28;20280;-75
2022/10/24 19:03:35;;;;;;;5.67;2.73;;;13.70;96.30;;;;;;4999765;28;20519;-75
2022/10/24 19:06:15;;;;;;;8.20;2.40;;;;;;;;;;4995880;28;20444;-75
2022/10/24 19:08:41;;;;;;;13.83;8.17;;;13.60;96.30;;;;;;4993814;28;20459;-75
2022/10/24 19:11:06;;;;;;;5.80;4.50;;;13.60;96.30;;;;;;4994023;28;20440;-75
2022/10/24 19:13:32;;;;;;;8.30;4.93;;;13.50;96.30;;;;;;4995009;28;20280;-75
2022/10/24 19:16:02;;;;;;;9.87;5.90;;;13.50;96.30;;;;;;5013612;28;20213;-76
2022/10/24 19:18:31;;;;;;;14.10;7.30;;;13.40;96.30;;;;;;4995739;28;20173;-75